createdAt,value
2023-05-08T00:04:16.005Z,103.70
2023-05-08T00:19:21.653Z,104.73
2023-05-08T00:34:27.783Z,105.34
2023-05-08T00:49:34.889Z,103.76
2023-05-08T01:04:42.108Z,103.88
2023-05-08T01:20:00.094Z,104.05
2023-05-08T01:35:22.934Z,103.92
2023-05-08T01:50:35.908Z,104.51
2023-05-08T02:05:43.070Z,105.91
2023-05-08T02:20:49.322Z,105.44
2023-05-08T02:35:57.425Z,104.79
2023-05-08T02:51:08.690Z,104.98
2023-05-08T03:06:18.721Z,105.43
2023-05-08T03:21:28.530Z,104.65
2023-05-08T03:36:34.616Z,104.80
2023-05-08T03:51:41.366Z,104.47
2023-05-08T04:06:52.829Z,103.87
2023-05-08T04:22:03.560Z,104.63
2023-05-08T04:37:10.209Z,104.70
2023-05-08T04:52:15.685Z,106.40
2023-05-08T05:07:21.203Z,105.63
2023-05-08T05:22:26.831Z,105.40
2023-05-08T05:37:32.382Z,105.37
2023-05-08T05:52:38.125Z,105.66
2023-05-08T06:07:43.577Z,106.34
2023-05-08T06:22:49.119Z,105.70
2023-05-08T06:37:54.698Z,106.15
2023-05-08T06:53:00.356Z,105.85
2023-05-08T07:08:06.253Z,106.00
2023-05-08T07:23:11.792Z,105.20
2023-05-08T07:38:17.614Z,104.38
2023-05-08T07:53:23.346Z,103.52
2023-05-08T08:08:28.931Z,103.92
2023-05-08T08:23:34.509Z,104.47
2023-05-08T08:38:40.265Z,104.69
2023-05-08T08:53:48.358Z,103.65
2023-05-08T09:08:58.246Z,102.47
2023-05-08T09:24:05.656Z,99.47
2023-05-08T09:39:14.535Z,99.95
2023-05-08T09:54:21.328Z,97.46
2023-05-08T10:09:32.805Z,97.14
2023-05-08T10:24:47.064Z,95.10
2023-05-08T10:39:53.622Z,100.42
2023-05-08T10:55:18.389Z,102.89
2023-05-08T11:10:31.520Z,103.13
2023-05-08T11:25:46.297Z,100.53
2023-05-08T11:40:58.415Z,97.76
2023-05-08T11:56:04.332Z,97.10
2023-05-08T12:11:10.463Z,97.21
2023-05-08T12:26:16.338Z,93.70
2023-05-08T12:41:27.701Z,92.84
2023-05-08T12:56:33.181Z,92.59
2023-05-08T13:11:39.834Z,91.11
2023-05-08T13:26:46.262Z,90.37
2023-05-08T13:41:51.799Z,88.61
2023-05-08T13:56:57.497Z,88.70
2023-05-08T14:12:03.153Z,88.99
2023-05-08T14:27:08.817Z,85.81
2023-05-08T14:42:23.002Z,87.36
2023-05-08T14:57:29.223Z,85.61
2023-05-08T15:12:35.080Z,86.03
2023-05-08T15:27:41.931Z,83.46
2023-05-08T15:42:47.397Z,84.32
2023-05-08T15:57:53.103Z,82.72
2023-05-08T16:12:58.728Z,83.30
2023-05-08T16:28:04.529Z,86.57
2023-05-08T16:43:10.177Z,84.51
2023-05-08T16:58:16.263Z,82.17
2023-05-08T17:13:21.913Z,84.89
2023-05-08T17:28:27.912Z,89.25
2023-05-08T17:43:35.562Z,91.89
2023-05-08T17:58:41.069Z,92.50
2023-05-08T18:13:46.912Z,92.50
2023-05-08T18:28:52.544Z,93.13
2023-05-08T18:44:01.798Z,95.62
2023-05-08T18:59:07.487Z,96.49
2023-05-08T19:14:13.280Z,95.55
2023-05-08T19:29:18.845Z,96.78
2023-05-08T19:44:26.197Z,96.78
2023-05-08T19:59:31.896Z,100.18
2023-05-08T20:14:37.489Z,100.72
2023-05-08T20:29:43.180Z,100.90
2023-05-08T20:44:48.725Z,102.04
2023-05-08T20:59:54.625Z,101.87
2023-05-08T21:15:00.121Z,102.99
2023-05-08T21:30:06.963Z,103.28
2023-05-08T21:45:13.637Z,104.14
2023-05-08T22:00:20.583Z,104.86
2023-05-08T22:15:30.275Z,104.85
2023-05-08T22:30:36.729Z,105.70
2023-05-08T22:45:42.553Z,104.65
2023-05-08T23:00:48.360Z,105.86
2023-05-08T23:15:53.937Z,105.74
2023-05-08T23:30:59.521Z,106.69
2023-05-08T23:46:05.167Z,105.87
